Rankin Inlet Airport

Airport
ICAO code: 
CYRT
Summary
ICAO Region: 
NAM
Territory: 
Location: 
Rankin Inlet, Nunavut,
Coordinates: 
Aerial View: 
62° 48' 34.762" N, 92° 6' 40.06" W
Airport BS: 
Non Avian Wildlife Hazards to Aircraft
Airport CFIT: 
Altimeter Temperature Error Correction
Airport GND: 
Aircraft Ground De/Anti Icing
Metar
Observation
CYRT 042000Z 31019KT 8SM IC DRSN FEW015 FEW250 M31/M35 A2976 RMK SC1CI1 SC TR SLP086
Station
Rankin Inlet, N. W. T.
Date/Time
2021-12-04 20:00:00
Wind direction
310°
Wind speed
19 kts
Lowest cloud amount
few clouds
Temperature
-31°C
Dew point
-35°C
Humidity
67%
Weather condition
drifting

Description

Airport serving Rankin Inlet, Nunavut.

Climatology

Tundra climate (Köppen climate classification ET) - warmest month has an average temperature of 0 - 10 degrees C.

Runways

Designator Length Width Surface Rops
13T/31T 1829 46 ASP No/No
Airport map: 
Aerial View: 

SKYbrary Partners:

Safety knowledge contributed by: